sensor_id;sensor_type;location;lat;lon;timestamp;P1;durP1;ratioP1;P2;durP2;ratioP2
54247;SDS011;40161;39.768;2.722;2022-09-03T00:02:27;3.80;;;1.80;;
54247;SDS011;40161;39.768;2.722;2022-09-03T00:08:13;3.83;;;1.58;;
54247;SDS011;40161;39.768;2.722;2022-09-03T00:10:51;4.05;;;1.52;;
54247;SDS011;40161;39.768;2.722;2022-09-03T00:13:43;3.80;;;1.65;;
54247;SDS011;40161;39.768;2.722;2022-09-03T00:16:14;5.00;;;1.65;;
54247;SDS011;40161;39.768;2.722;2022-09-03T00:18:49;5.60;;;1.52;;
54247;SDS011;40161;39.768;2.722;2022-09-03T00:24:02;5.90;;;1.92;;
54247;SDS011;40161;39.768;2.722;2022-09-03T00:26:32;7.35;;;4.28;;
54247;SDS011;40161;39.768;2.722;2022-09-03T00:29:10;6.07;;;1.92;;
54247;SDS011;40161;39.768;2.722;2022-09-03T00:31:45;5.38;;;1.75;;
54247;SDS011;40161;39.768;2.722;2022-09-03T00:34:19;3.35;;;1.63;;
54247;SDS011;40161;39.768;2.722;2022-09-03T00:36:51;4.05;;;1.60;;
54247;SDS011;40161;39.768;2.722;2022-09-03T00:39:18;3.25;;;1.50;;
54247;SDS011;40161;39.768;2.722;2022-09-03T00:46:52;3.47;;;1.52;;
54247;SDS011;40161;39.768;2.722;2022-09-03T01:00:26;4.93;;;1.85;;
54247;SDS011;40161;39.768;2.722;2022-09-03T01:02:59;3.88;;;1.80;;
54247;SDS011;40161;39.768;2.722;2022-09-03T01:05:38;6.70;;;1.80;;
54247;SDS011;40161;39.768;2.722;2022-09-03T01:23:56;3.90;;;1.42;;
54247;SDS011;40161;39.768;2.722;2022-09-03T01:44:54;4.85;;;1.33;;
54247;SDS011;40161;39.768;2.722;2022-09-03T01:47:44;3.97;;;1.58;;
54247;SDS011;40161;39.768;2.722;2022-09-03T02:02:04;3.95;;;1.50;;
54247;SDS011;40161;39.768;2.722;2022-09-03T02:04:36;5.03;;;1.80;;
54247;SDS011;40161;39.768;2.722;2022-09-03T02:07:02;3.67;;;1.10;;
54247;SDS011;40161;39.768;2.722;2022-09-03T02:09:30;4.40;;;1.23;;
54247;SDS011;40161;39.768;2.722;2022-09-03T02:11:57;3.33;;;1.27;;
54247;SDS011;40161;39.768;2.722;2022-09-03T02:14:32;4.25;;;1.30;;
54247;SDS011;40161;39.768;2.722;2022-09-03T02:16:59;3.88;;;1.50;;
54247;SDS011;40161;39.768;2.722;2022-09-03T02:19:27;3.80;;;1.40;;
54247;SDS011;40161;39.768;2.722;2022-09-03T02:21:54;4.63;;;1.40;;
54247;SDS011;40161;39.768;2.722;2022-09-03T02:27:43;7.45;;;1.70;;
54247;SDS011;40161;39.768;2.722;2022-09-03T02:33:34;3.97;;;1.30;;
54247;SDS011;40161;39.768;2.722;2022-09-03T02:36:06;2.35;;;1.10;;
54247;SDS011;40161;39.768;2.722;2022-09-03T02:38:34;4.43;;;1.33;;
54247;SDS011;40161;39.768;2.722;2022-09-03T02:40:59;3.30;;;1.40;;
54247;SDS011;40161;39.768;2.722;2022-09-03T02:46:47;3.00;;;1.23;;
54247;SDS011;40161;39.768;2.722;2022-09-03T02:49:16;4.85;;;1.85;;
54247;SDS011;40161;39.768;2.722;2022-09-03T02:51:42;3.67;;;1.58;;
54247;SDS011;40161;39.768;2.722;2022-09-03T02:54:08;3.60;;;1.40;;
54247;SDS011;40161;39.768;2.722;2022-09-03T02:56:35;3.22;;;1.20;;
54247;SDS011;40161;39.768;2.722;2022-09-03T02:59:02;4.47;;;1.58;;
54247;SDS011;40161;39.768;2.722;2022-09-03T03:01:28;5.57;;;1.58;;
54247;SDS011;40161;39.768;2.722;2022-09-03T03:03:54;4.68;;;1.52;;
54247;SDS011;40161;39.768;2.722;2022-09-03T03:06:20;7.20;;;1.50;;
54247;SDS011;40161;39.768;2.722;2022-09-03T03:08:46;5.97;;;1.30;;
54247;SDS011;40161;39.768;2.722;2022-09-03T03:11:12;5.00;;;1.73;;
54247;SDS011;40161;39.768;2.722;2022-09-03T03:13:42;2.70;;;1.25;;
54247;SDS011;40161;39.768;2.722;2022-09-03T03:16:08;2.55;;;1.25;;
54247;SDS011;40161;39.768;2.722;2022-09-03T03:18:34;4.88;;;1.33;;
54247;SDS011;40161;39.768;2.722;2022-09-03T03:24:21;3.70;;;1.40;;
54247;SDS011;40161;39.768;2.722;2022-09-03T03:30:08;4.00;;;1.17;;
54247;SDS011;40161;39.768;2.722;2022-09-03T03:32:35;5.90;;;1.75;;
54247;SDS011;40161;39.768;2.722;2022-09-03T03:35:02;3.75;;;1.30;;
54247;SDS011;40161;39.768;2.722;2022-09-03T03:37:28;4.35;;;1.40;;
54247;SDS011;40161;39.768;2.722;2022-09-03T03:39:54;4.88;;;1.27;;
54247;SDS011;40161;39.768;2.722;2022-09-03T03:42:19;4.07;;;1.38;;
54247;SDS011;40161;39.768;2.722;2022-09-03T03:44:45;5.85;;;1.60;;
54247;SDS011;40161;39.768;2.722;2022-09-03T03:47:10;4.22;;;1.40;;
54247;SDS011;40161;39.768;2.722;2022-09-03T03:49:36;6.10;;;1.30;;
54247;SDS011;40161;39.768;2.722;2022-09-03T03:52:01;5.20;;;1.30;;
54247;SDS011;40161;39.768;2.722;2022-09-03T03:54:28;4.95;;;1.20;;
54247;SDS011;40161;39.768;2.722;2022-09-03T03:56:54;3.72;;;1.20;;
54247;SDS011;40161;39.768;2.722;2022-09-03T03:59:20;6.03;;;1.63;;
54247;SDS011;40161;39.768;2.722;2022-09-03T04:01:46;8.05;;;1.45;;
54247;SDS011;40161;39.768;2.722;2022-09-03T04:04:14;6.60;;;1.27;;
54247;SDS011;40161;39.768;2.722;2022-09-03T04:06:39;8.05;;;1.88;;
54247;SDS011;40161;39.768;2.722;2022-09-03T04:09:05;7.70;;;1.65;;
54247;SDS011;40161;39.768;2.722;2022-09-03T04:11:30;8.45;;;1.92;;
54247;SDS011;40161;39.768;2.722;2022-09-03T04:13:56;5.15;;;1.40;;
54247;SDS011;40161;39.768;2.722;2022-09-03T04:16:23;8.43;;;1.65;;
54247;SDS011;40161;39.768;2.722;2022-09-03T04:18:50;7.35;;;1.65;;
54247;SDS011;40161;39.768;2.722;2022-09-03T04:21:18;7.68;;;1.52;;
54247;SDS011;40161;39.768;2.722;2022-09-03T04:23:46;5.70;;;1.45;;
54247;SDS011;40161;39.768;2.722;2022-09-03T04:26:13;5.63;;;1.80;;
54247;SDS011;40161;39.768;2.722;2022-09-03T04:28:41;5.25;;;1.48;;
54247;SDS011;40161;39.768;2.722;2022-09-03T04:31:09;10.82;;;2.33;;
54247;SDS011;40161;39.768;2.722;2022-09-03T04:33:37;6.32;;;1.65;;
54247;SDS011;40161;39.768;2.722;2022-09-03T04:36:04;7.30;;;1.60;;
54247;SDS011;40161;39.768;2.722;2022-09-03T04:38:30;7.53;;;1.70;;
54247;SDS011;40161;39.768;2.722;2022-09-03T04:40:57;9.05;;;2.42;;
54247;SDS011;40161;39.768;2.722;2022-09-03T04:43:24;5.85;;;1.55;;
54247;SDS011;40161;39.768;2.722;2022-09-03T04:45:50;7.68;;;1.80;;
54247;SDS011;40161;39.768;2.722;2022-09-03T04:48:16;9.88;;;1.77;;
54247;SDS011;40161;39.768;2.722;2022-09-03T04:50:41;6.57;;;1.98;;
54247;SDS011;40161;39.768;2.722;2022-09-03T04:53:07;9.32;;;1.80;;
54247;SDS011;40161;39.768;2.722;2022-09-03T04:55:33;8.98;;;1.80;;
54247;SDS011;40161;39.768;2.722;2022-09-03T04:57:59;6.53;;;1.90;;
54247;SDS011;40161;39.768;2.722;2022-09-03T05:00:25;6.57;;;2.15;;
54247;SDS011;40161;39.768;2.722;2022-09-03T05:06:12;3.97;;;1.53;;
54247;SDS011;40161;39.768;2.722;2022-09-03T05:08:38;7.10;;;1.90;;
54247;SDS011;40161;39.768;2.722;2022-09-03T05:11:07;4.55;;;1.80;;
54247;SDS011;40161;39.768;2.722;2022-09-03T05:13:33;7.22;;;2.10;;
54247;SDS011;40161;39.768;2.722;2022-09-03T05:16:01;7.63;;;1.88;;
54247;SDS011;40161;39.768;2.722;2022-09-03T05:18:31;11.07;;;2.25;;
54247;SDS011;40161;39.768;2.722;2022-09-03T05:20:58;7.45;;;2.45;;
54247;SDS011;40161;39.768;2.722;2022-09-03T05:23:25;7.20;;;1.90;;
54247;SDS011;40161;39.768;2.722;2022-09-03T05:25:55;6.47;;;1.90;;
54247;SDS011;40161;39.768;2.722;2022-09-03T05:28:25;8.55;;;2.03;;
54247;SDS011;40161;39.768;2.722;2022-09-03T05:31:01;6.65;;;1.85;;
54247;SDS011;40161;39.768;2.722;2022-09-03T05:33:27;7.43;;;1.90;;
54247;SDS011;40161;39.768;2.722;2022-09-03T05:35:54;6.72;;;1.50;;
54247;SDS011;40161;39.768;2.722;2022-09-03T05:38:25;6.40;;;1.83;;
54247;SDS011;40161;39.768;2.722;2022-09-03T05:40:50;8.15;;;2.10;;
54247;SDS011;40161;39.768;2.722;2022-09-03T05:43:16;6.53;;;1.60;;
54247;SDS011;40161;39.768;2.722;2022-09-03T05:45:41;8.88;;;2.00;;
54247;SDS011;40161;39.768;2.722;2022-09-03T05:48:07;8.07;;;2.40;;
54247;SDS011;40161;39.768;2.722;2022-09-03T05:50:32;7.03;;;1.70;;
54247;SDS011;40161;39.768;2.722;2022-09-03T05:52:58;5.65;;;1.80;;
54247;SDS011;40161;39.768;2.722;2022-09-03T05:55:24;5.07;;;1.58;;
54247;SDS011;40161;39.768;2.722;2022-09-03T05:57:52;6.13;;;1.70;;
54247;SDS011;40161;39.768;2.722;2022-09-03T06:00:18;7.53;;;1.80;;
54247;SDS011;40161;39.768;2.722;2022-09-03T06:02:53;5.90;;;1.60;;
54247;SDS011;40161;39.768;2.722;2022-09-03T06:05:19;6.63;;;1.90;;
54247;SDS011;40161;39.768;2.722;2022-09-03T06:07:44;5.47;;;1.70;;
54247;SDS011;40161;39.768;2.722;2022-09-03T06:10:13;5.43;;;1.88;;
54247;SDS011;40161;39.768;2.722;2022-09-03T06:12:41;9.38;;;1.95;;
54247;SDS011;40161;39.768;2.722;2022-09-03T06:15:14;6.03;;;1.75;;
54247;SDS011;40161;39.768;2.722;2022-09-03T06:17:40;7.00;;;1.98;;
54247;SDS011;40161;39.768;2.722;2022-09-03T06:20:06;6.53;;;1.80;;
54247;SDS011;40161;39.768;2.722;2022-09-03T06:22:32;6.93;;;2.05;;
54247;SDS011;40161;39.768;2.722;2022-09-03T06:24:58;7.15;;;2.70;;
54247;SDS011;40161;39.768;2.722;2022-09-03T06:27:23;7.57;;;1.75;;
54247;SDS011;40161;39.768;2.722;2022-09-03T06:29:49;6.97;;;2.08;;
54247;SDS011;40161;39.768;2.722;2022-09-03T06:32:14;6.75;;;2.55;;
54247;SDS011;40161;39.768;2.722;2022-09-03T06:34:40;8.02;;;2.30;;
54247;SDS011;40161;39.768;2.722;2022-09-03T06:37:06;8.63;;;2.70;;
54247;SDS011;40161;39.768;2.722;2022-09-03T06:39:31;9.48;;;2.63;;
54247;SDS011;40161;39.768;2.722;2022-09-03T06:41:57;7.85;;;2.30;;
54247;SDS011;40161;39.768;2.722;2022-09-03T06:44:22;6.60;;;2.22;;
54247;SDS011;40161;39.768;2.722;2022-09-03T06:46:48;7.32;;;2.38;;
54247;SDS011;40161;39.768;2.722;2022-09-03T06:49:17;6.45;;;1.90;;
54247;SDS011;40161;39.768;2.722;2022-09-03T06:51:44;10.93;;;2.50;;
54247;SDS011;40161;39.768;2.722;2022-09-03T06:54:10;7.18;;;2.60;;
54247;SDS011;40161;39.768;2.722;2022-09-03T06:56:37;7.00;;;2.72;;
54247;SDS011;40161;39.768;2.722;2022-09-03T06:59:08;6.80;;;2.60;;
54247;SDS011;40161;39.768;2.722;2022-09-03T07:01:35;6.63;;;2.45;;
54247;SDS011;40161;39.768;2.722;2022-09-03T07:04:04;8.98;;;2.42;;
54247;SDS011;40161;39.768;2.722;2022-09-03T07:06:31;10.45;;;2.83;;
54247;SDS011;40161;39.768;2.722;2022-09-03T07:09:02;6.50;;;2.33;;
54247;SDS011;40161;39.768;2.722;2022-09-03T07:11:29;8.73;;;2.45;;
54247;SDS011;40161;39.768;2.722;2022-09-03T07:13:57;9.82;;;3.00;;
54247;SDS011;40161;39.768;2.722;2022-09-03T07:16:24;9.15;;;2.50;;
54247;SDS011;40161;39.768;2.722;2022-09-03T07:18:51;7.68;;;2.50;;
54247;SDS011;40161;39.768;2.722;2022-09-03T07:21:18;5.78;;;2.13;;
54247;SDS011;40161;39.768;2.722;2022-09-03T07:23:48;9.25;;;2.60;;
54247;SDS011;40161;39.768;2.722;2022-09-03T07:26:20;7.32;;;2.70;;
54247;SDS011;40161;39.768;2.722;2022-09-03T07:28:48;6.93;;;2.50;;
54247;SDS011;40161;39.768;2.722;2022-09-03T07:31:16;7.40;;;2.05;;
54247;SDS011;40161;39.768;2.722;2022-09-03T07:33:59;6.75;;;2.45;;
54247;SDS011;40161;39.768;2.722;2022-09-03T07:36:30;7.97;;;2.58;;
54247;SDS011;40161;39.768;2.722;2022-09-03T07:38:59;8.70;;;2.40;;
54247;SDS011;40161;39.768;2.722;2022-09-03T07:41:25;8.90;;;2.22;;
54247;SDS011;40161;39.768;2.722;2022-09-03T07:43:52;8.02;;;2.38;;
54247;SDS011;40161;39.768;2.722;2022-09-03T07:46:19;7.63;;;2.40;;
54247;SDS011;40161;39.768;2.722;2022-09-03T07:48:49;9.40;;;2.20;;
54247;SDS011;40161;39.768;2.722;2022-09-03T07:51:17;6.57;;;2.17;;
54247;SDS011;40161;39.768;2.722;2022-09-03T07:53:44;6.50;;;2.15;;
54247;SDS011;40161;39.768;2.722;2022-09-03T07:56:10;6.13;;;1.80;;
54247;SDS011;40161;39.768;2.722;2022-09-03T07:58:36;6.35;;;1.55;;
54247;SDS011;40161;39.768;2.722;2022-09-03T08:01:36;7.10;;;1.85;;
54247;SDS011;40161;39.768;2.722;2022-09-03T08:03:56;8.27;;;2.00;;
54247;SDS011;40161;39.768;2.722;2022-09-03T08:06:24;6.03;;;2.50;;
54247;SDS011;40161;39.768;2.722;2022-09-03T08:08:58;5.88;;;1.80;;
54247;SDS011;40161;39.768;2.722;2022-09-03T08:11:26;9.32;;;2.15;;
54247;SDS011;40161;39.768;2.722;2022-09-03T08:13:57;8.48;;;2.20;;
54247;SDS011;40161;39.768;2.722;2022-09-03T08:16:26;8.40;;;2.17;;
54247;SDS011;40161;39.768;2.722;2022-09-03T08:18:53;8.25;;;1.92;;
54247;SDS011;40161;39.768;2.722;2022-09-03T08:21:19;8.35;;;2.33;;
54247;SDS011;40161;39.768;2.722;2022-09-03T08:23:46;6.00;;;1.85;;
54247;SDS011;40161;39.768;2.722;2022-09-03T08:26:14;7.80;;;2.00;;
54247;SDS011;40161;39.768;2.722;2022-09-03T08:28:41;6.53;;;1.80;;
54247;SDS011;40161;39.768;2.722;2022-09-03T08:31:08;6.82;;;1.92;;
54247;SDS011;40161;39.768;2.722;2022-09-03T08:33:36;7.32;;;2.10;;
54247;SDS011;40161;39.768;2.722;2022-09-03T08:36:06;5.97;;;1.70;;
54247;SDS011;40161;39.768;2.722;2022-09-03T08:38:37;5.60;;;1.95;;
54247;SDS011;40161;39.768;2.722;2022-09-03T08:41:09;4.55;;;1.77;;
54247;SDS011;40161;39.768;2.722;2022-09-03T08:54:57;8.10;;;1.80;;
54247;SDS011;40161;39.768;2.722;2022-09-03T08:57:53;7.68;;;2.08;;
54247;SDS011;40161;39.768;2.722;2022-09-03T09:00:40;11.25;;;2.15;;
54247;SDS011;40161;39.768;2.722;2022-09-03T09:15:29;7.43;;;2.60;;
54247;SDS011;40161;39.768;2.722;2022-09-03T09:21:10;6.40;;;1.85;;
54247;SDS011;40161;39.768;2.722;2022-09-03T09:26:14;6.63;;;1.70;;
54247;SDS011;40161;39.768;2.722;2022-09-03T09:28:41;7.15;;;1.85;;
54247;SDS011;40161;39.768;2.722;2022-09-03T09:31:10;6.50;;;2.00;;
54247;SDS011;40161;39.768;2.722;2022-09-03T09:33:40;8.23;;;1.88;;
54247;SDS011;40161;39.768;2.722;2022-09-03T09:36:08;8.10;;;1.98;;
54247;SDS011;40161;39.768;2.722;2022-09-03T09:38:37;7.47;;;1.70;;
54247;SDS011;40161;39.768;2.722;2022-09-03T09:41:16;9.80;;;1.85;;
54247;SDS011;40161;39.768;2.722;2022-09-03T09:43:44;10.20;;;1.95;;
54247;SDS011;40161;39.768;2.722;2022-09-03T09:46:23;5.95;;;1.73;;
54247;SDS011;40161;39.768;2.722;2022-09-03T09:48:52;6.00;;;1.60;;
54247;SDS011;40161;39.768;2.722;2022-09-03T09:51:24;6.60;;;1.50;;
54247;SDS011;40161;39.768;2.722;2022-09-03T10:03:28;9.65;;;1.70;;
54247;SDS011;40161;39.768;2.722;2022-09-03T10:05:59;9.77;;;1.95;;
54247;SDS011;40161;39.768;2.722;2022-09-03T10:12:23;7.03;;;1.52;;
54247;SDS011;40161;39.768;2.722;2022-09-03T10:15:02;6.75;;;1.90;;
54247;SDS011;40161;39.768;2.722;2022-09-03T10:32:47;10.15;;;1.90;;
54247;SDS011;40161;39.768;2.722;2022-09-03T11:06:09;12.43;;;2.20;;
54247;SDS011;40161;39.768;2.722;2022-09-03T11:08:52;9.02;;;2.50;;
54247;SDS011;40161;39.768;2.722;2022-09-03T11:11:35;10.07;;;1.92;;
54247;SDS011;40161;39.768;2.722;2022-09-03T11:14:09;12.90;;;2.58;;
54247;SDS011;40161;39.768;2.722;2022-09-03T11:16:51;8.23;;;2.40;;
54247;SDS011;40161;39.768;2.722;2022-09-03T11:19:29;9.40;;;2.22;;
54247;SDS011;40161;39.768;2.722;2022-09-03T11:22:15;7.00;;;1.67;;
54247;SDS011;40161;39.768;2.722;2022-09-03T11:24:43;7.28;;;1.63;;
54247;SDS011;40161;39.768;2.722;2022-09-03T11:36:39;10.18;;;2.03;;
54247;SDS011;40161;39.768;2.722;2022-09-03T11:39:38;12.23;;;2.45;;
54247;SDS011;40161;39.768;2.722;2022-09-03T11:42:04;8.43;;;2.38;;
54247;SDS011;40161;39.768;2.722;2022-09-03T11:44:40;9.43;;;3.00;;
54247;SDS011;40161;39.768;2.722;2022-09-03T11:47:20;10.73;;;3.63;;
54247;SDS011;40161;39.768;2.722;2022-09-03T11:49:52;8.27;;;2.20;;
54247;SDS011;40161;39.768;2.722;2022-09-03T11:52:29;9.55;;;2.10;;
54247;SDS011;40161;39.768;2.722;2022-09-03T11:55:04;13.30;;;2.40;;
54247;SDS011;40161;39.768;2.722;2022-09-03T11:57:31;10.13;;;2.20;;
54247;SDS011;40161;39.768;2.722;2022-09-03T12:02:56;7.35;;;2.08;;
54247;SDS011;40161;39.768;2.722;2022-09-03T12:09:16;7.85;;;2.25;;
54247;SDS011;40161;39.768;2.722;2022-09-03T12:14:39;9.75;;;2.38;;
54247;SDS011;40161;39.768;2.722;2022-09-03T12:17:31;12.52;;;2.70;;
54247;SDS011;40161;39.768;2.722;2022-09-03T12:20:12;9.18;;;2.00;;
54247;SDS011;40161;39.768;2.722;2022-09-03T12:22:39;9.00;;;2.08;;
54247;SDS011;40161;39.768;2.722;2022-09-03T12:31:48;8.70;;;2.08;;
54247;SDS011;40161;39.768;2.722;2022-09-03T12:40:58;5.38;;;1.67;;
54247;SDS011;40161;39.768;2.722;2022-09-03T12:43:27;10.43;;;2.28;;
54247;SDS011;40161;39.768;2.722;2022-09-03T12:45:53;7.53;;;1.90;;
54247;SDS011;40161;39.768;2.722;2022-09-03T12:48:19;12.23;;;2.15;;
54247;SDS011;40161;39.768;2.722;2022-09-03T12:50:46;10.00;;;2.25;;
54247;SDS011;40161;39.768;2.722;2022-09-03T12:53:16;10.98;;;2.15;;
54247;SDS011;40161;39.768;2.722;2022-09-03T12:55:49;6.55;;;2.30;;
54247;SDS011;40161;39.768;2.722;2022-09-03T12:58:31;6.32;;;1.95;;
54247;SDS011;40161;39.768;2.722;2022-09-03T13:01:12;7.57;;;2.05;;
54247;SDS011;40161;39.768;2.722;2022-09-03T13:03:54;11.52;;;2.40;;
54247;SDS011;40161;39.768;2.722;2022-09-03T13:06:28;12.25;;;2.58;;
54247;SDS011;40161;39.768;2.722;2022-09-03T13:11:32;9.55;;;2.17;;
54247;SDS011;40161;39.768;2.722;2022-09-03T13:14:10;9.38;;;2.10;;
54247;SDS011;40161;39.768;2.722;2022-09-03T13:25:33;10.63;;;2.10;;
54247;SDS011;40161;39.768;2.722;2022-09-03T13:34:02;9.55;;;2.13;;
54247;SDS011;40161;39.768;2.722;2022-09-03T13:39:27;10.10;;;2.33;;
54247;SDS011;40161;39.768;2.722;2022-09-03T13:42:05;6.03;;;2.00;;
54247;SDS011;40161;39.768;2.722;2022-09-03T13:45:37;8.75;;;2.10;;
54247;SDS011;40161;39.768;2.722;2022-09-03T13:48:23;10.15;;;1.98;;
54247;SDS011;40161;39.768;2.722;2022-09-03T13:51:21;7.97;;;2.10;;
54247;SDS011;40161;39.768;2.722;2022-09-03T13:54:02;7.50;;;2.20;;
54247;SDS011;40161;39.768;2.722;2022-09-03T14:03:16;8.18;;;2.20;;
54247;SDS011;40161;39.768;2.722;2022-09-03T14:09:14;8.85;;;1.75;;
54247;SDS011;40161;39.768;2.722;2022-09-03T14:15:21;8.32;;;2.00;;
54247;SDS011;40161;39.768;2.722;2022-09-03T14:20:45;9.00;;;2.10;;
54247;SDS011;40161;39.768;2.722;2022-09-03T14:26:47;9.13;;;2.30;;
54247;SDS011;40161;39.768;2.722;2022-09-03T14:29:16;8.60;;;2.17;;
54247;SDS011;40161;39.768;2.722;2022-09-03T14:58:33;9.32;;;1.73;;
54247;SDS011;40161;39.768;2.722;2022-09-03T15:16:58;10.80;;;2.00;;
54247;SDS011;40161;39.768;2.722;2022-09-03T15:19:45;10.38;;;2.10;;
54247;SDS011;40161;39.768;2.722;2022-09-03T15:26:20;9.73;;;2.10;;
54247;SDS011;40161;39.768;2.722;2022-09-03T15:29:02;9.00;;;2.25;;
54247;SDS011;40161;39.768;2.722;2022-09-03T15:35:06;7.43;;;2.00;;
54247;SDS011;40161;39.768;2.722;2022-09-03T15:44:18;9.70;;;2.40;;
54247;SDS011;40161;39.768;2.722;2022-09-03T15:49:25;11.43;;;2.97;;
54247;SDS011;40161;39.768;2.722;2022-09-03T16:17:30;7.40;;;2.10;;
54247;SDS011;40161;39.768;2.722;2022-09-03T16:24:02;7.70;;;1.83;;
54247;SDS011;40161;39.768;2.722;2022-09-03T16:46:51;9.98;;;2.15;;
54247;SDS011;40161;39.768;2.722;2022-09-03T17:05:15;7.32;;;2.05;;
54247;SDS011;40161;39.768;2.722;2022-09-03T17:19:06;10.23;;;2.13;;
54247;SDS011;40161;39.768;2.722;2022-09-03T17:21:51;10.00;;;2.22;;
54247;SDS011;40161;39.768;2.722;2022-09-03T17:28:00;9.45;;;2.35;;
54247;SDS011;40161;39.768;2.722;2022-09-03T17:33:31;9.85;;;2.80;;
54247;SDS011;40161;39.768;2.722;2022-09-03T17:49:45;9.55;;;2.38;;
54247;SDS011;40161;39.768;2.722;2022-09-03T17:55:01;10.40;;;2.80;;
54247;SDS011;40161;39.768;2.722;2022-09-03T17:57:42;14.95;;;3.00;;
54247;SDS011;40161;39.768;2.722;2022-09-03T18:00:12;8.55;;;2.45;;
54247;SDS011;40161;39.768;2.722;2022-09-03T18:02:53;12.32;;;2.95;;
54247;SDS011;40161;39.768;2.722;2022-09-03T18:06:09;8.68;;;2.40;;
54247;SDS011;40161;39.768;2.722;2022-09-03T18:11:38;12.43;;;3.00;;
54247;SDS011;40161;39.768;2.722;2022-09-03T18:23:25;9.75;;;2.50;;
54247;SDS011;40161;39.768;2.722;2022-09-03T18:26:24;9.13;;;2.72;;
54247;SDS011;40161;39.768;2.722;2022-09-03T18:29:16;10.63;;;3.28;;
54247;SDS011;40161;39.768;2.722;2022-09-03T18:32:11;9.55;;;2.58;;
54247;SDS011;40161;39.768;2.722;2022-09-03T18:34:55;12.85;;;2.35;;
54247;SDS011;40161;39.768;2.722;2022-09-03T18:37:39;9.32;;;2.95;;
54247;SDS011;40161;39.768;2.722;2022-09-03T18:40:25;10.68;;;2.90;;
54247;SDS011;40161;39.768;2.722;2022-09-03T18:43:27;9.50;;;2.53;;
54247;SDS011;40161;39.768;2.722;2022-09-03T18:46:20;9.77;;;2.65;;
54247;SDS011;40161;39.768;2.722;2022-09-03T18:52:20;7.65;;;2.78;;
54247;SDS011;40161;39.768;2.722;2022-09-03T19:01:28;12.57;;;2.65;;
54247;SDS011;40161;39.768;2.722;2022-09-03T19:04:29;8.23;;;2.08;;
54247;SDS011;40161;39.768;2.722;2022-09-03T19:07:53;7.13;;;1.98;;
54247;SDS011;40161;39.768;2.722;2022-09-03T19:10:59;8.60;;;2.55;;
54247;SDS011;40161;39.768;2.722;2022-09-03T19:20:35;8.20;;;2.35;;
54247;SDS011;40161;39.768;2.722;2022-09-03T19:23:21;12.45;;;3.10;;
54247;SDS011;40161;39.768;2.722;2022-09-03T19:26:11;5.22;;;2.15;;
54247;SDS011;40161;39.768;2.722;2022-09-03T19:29:06;7.82;;;2.35;;
54247;SDS011;40161;39.768;2.722;2022-09-03T19:32:08;6.18;;;2.38;;
54247;SDS011;40161;39.768;2.722;2022-09-03T19:37:59;10.10;;;3.22;;
54247;SDS011;40161;39.768;2.722;2022-09-03T19:41:04;9.52;;;3.00;;
54247;SDS011;40161;39.768;2.722;2022-09-03T19:46:48;10.43;;;3.13;;
54247;SDS011;40161;39.768;2.722;2022-09-03T19:55:36;9.10;;;2.28;;
54247;SDS011;40161;39.768;2.722;2022-09-03T19:58:25;7.20;;;2.15;;
54247;SDS011;40161;39.768;2.722;2022-09-03T20:01:12;8.25;;;2.55;;
54247;SDS011;40161;39.768;2.722;2022-09-03T20:04:01;7.40;;;2.33;;
54247;SDS011;40161;39.768;2.722;2022-09-03T20:06:52;7.20;;;2.47;;
54247;SDS011;40161;39.768;2.722;2022-09-03T20:09:37;8.52;;;2.88;;
54247;SDS011;40161;39.768;2.722;2022-09-03T20:12:24;8.38;;;2.90;;
54247;SDS011;40161;39.768;2.722;2022-09-03T20:14:54;6.80;;;2.50;;
54247;SDS011;40161;39.768;2.722;2022-09-03T20:20:03;6.95;;;2.60;;
54247;SDS011;40161;39.768;2.722;2022-09-03T20:33:31;5.18;;;1.55;;
54247;SDS011;40161;39.768;2.722;2022-09-03T20:36:11;4.72;;;1.48;;
54247;SDS011;40161;39.768;2.722;2022-09-03T20:38:54;4.63;;;1.25;;
54247;SDS011;40161;39.768;2.722;2022-09-03T20:52:09;6.07;;;2.00;;
54247;SDS011;40161;39.768;2.722;2022-09-03T21:06:08;3.97;;;1.23;;
54247;SDS011;40161;39.768;2.722;2022-09-03T21:11:57;5.05;;;1.10;;
54247;SDS011;40161;39.768;2.722;2022-09-03T21:17:08;3.05;;;1.30;;
54247;SDS011;40161;39.768;2.722;2022-09-03T21:22:47;4.47;;;1.10;;
54247;SDS011;40161;39.768;2.722;2022-09-03T21:25:37;3.17;;;1.20;;
54247;SDS011;40161;39.768;2.722;2022-09-03T21:28:16;3.33;;;1.33;;
54247;SDS011;40161;39.768;2.722;2022-09-03T21:30:49;4.15;;;1.10;;
54247;SDS011;40161;39.768;2.722;2022-09-03T21:33:30;2.45;;;1.00;;
54247;SDS011;40161;39.768;2.722;2022-09-03T21:36:02;2.83;;;0.95;;
54247;SDS011;40161;39.768;2.722;2022-09-03T21:38:42;2.55;;;1.00;;
54247;SDS011;40161;39.768;2.722;2022-09-03T21:43:41;3.83;;;1.05;;
54247;SDS011;40161;39.768;2.722;2022-09-03T21:46:16;2.67;;;0.90;;
54247;SDS011;40161;39.768;2.722;2022-09-03T21:48:47;4.47;;;1.00;;
54247;SDS011;40161;39.768;2.722;2022-09-03T21:51:22;3.88;;;1.00;;
54247;SDS011;40161;39.768;2.722;2022-09-03T22:08:26;3.90;;;1.17;;
54247;SDS011;40161;39.768;2.722;2022-09-03T22:17:51;3.65;;;0.90;;
54247;SDS011;40161;39.768;2.722;2022-09-03T22:32:09;2.60;;;0.82;;
54247;SDS011;40161;39.768;2.722;2022-09-03T22:34:58;3.53;;;0.80;;
54247;SDS011;40161;39.768;2.722;2022-09-03T22:41:10;2.03;;;0.82;;
54247;SDS011;40161;39.768;2.722;2022-09-03T22:50:20;3.67;;;0.70;;
54247;SDS011;40161;39.768;2.722;2022-09-03T22:56:38;2.35;;;0.80;;
54247;SDS011;40161;39.768;2.722;2022-09-03T22:59:16;2.17;;;0.90;;
54247;SDS011;40161;39.768;2.722;2022-09-03T23:07:53;3.00;;;0.80;;
54247;SDS011;40161;39.768;2.722;2022-09-03T23:10:39;3.92;;;1.10;;
54247;SDS011;40161;39.768;2.722;2022-09-03T23:19:57;2.80;;;0.90;;
54247;SDS011;40161;39.768;2.722;2022-09-03T23:25:53;3.40;;;0.82;;
54247;SDS011;40161;39.768;2.722;2022-09-03T23:31:58;2.70;;;1.13;;
54247;SDS011;40161;39.768;2.722;2022-09-03T23:34:24;2.75;;;0.80;;
54247;SDS011;40161;39.768;2.722;2022-09-03T23:56:38;3.70;;;1.27;;
